createdAt,value
2018-12-15T00:00:24.723Z,69.30
2018-12-15T00:02:51.950Z,68.90
2018-12-15T00:05:18.898Z,69.20
2018-12-15T00:07:45.898Z,69.10
2018-12-15T00:10:13.045Z,69.20
2018-12-15T00:12:39.961Z,69.10
2018-12-15T00:15:08.390Z,69.10
2018-12-15T00:17:35.353Z,68.70
2018-12-15T00:20:02.360Z,69.00
2018-12-15T00:22:29.390Z,69.00
2018-12-15T00:24:56.351Z,68.90
2018-12-15T00:27:23.308Z,68.70
2018-12-15T00:29:50.772Z,68.80
2018-12-15T00:32:17.769Z,68.90
2018-12-15T00:34:44.777Z,69.00
2018-12-15T00:37:11.772Z,68.60
2018-12-15T00:39:38.722Z,68.80
2018-12-15T00:42:05.697Z,69.20
2018-12-15T00:44:32.681Z,69.70
2018-12-15T00:46:59.677Z,69.90
2018-12-15T00:49:26.643Z,70.10
2018-12-15T00:51:53.638Z,70.40
2018-12-15T00:54:20.613Z,70.30
2018-12-15T00:56:47.578Z,70.30
2018-12-15T00:59:14.587Z,69.60
2018-12-15T01:01:41.645Z,69.80
2018-12-15T01:04:08.607Z,69.90
2018-12-15T01:06:35.597Z,69.60
2018-12-15T01:09:03.144Z,69.30
2018-12-15T01:11:30.125Z,69.40
2018-12-15T01:13:57.117Z,69.40
2018-12-15T01:16:24.086Z,70.10
2018-12-15T01:18:51.040Z,70.30
2018-12-15T01:21:18.021Z,70.50
2018-12-15T01:23:44.971Z,71.10
2018-12-15T01:26:11.973Z,70.30
2018-12-15T01:28:38.992Z,70.20
2018-12-15T01:31:06.320Z,70.50
2018-12-15T01:33:33.274Z,69.50
2018-12-15T01:36:00.229Z,69.30
2018-12-15T01:38:27.169Z,69.10
2018-12-15T01:40:54.122Z,68.90
2018-12-15T01:43:21.201Z,69.00
2018-12-15T01:45:48.180Z,69.20
2018-12-15T01:48:15.121Z,69.10
2018-12-15T01:50:42.123Z,69.30
2018-12-15T01:53:09.082Z,69.30
2018-12-15T01:55:36.060Z,69.20
2018-12-15T01:58:03.068Z,69.50
2018-12-15T02:00:30.012Z,70.00
2018-12-15T02:02:56.947Z,70.30
2018-12-15T02:05:23.922Z,69.90
2018-12-15T02:07:50.891Z,69.70
2018-12-15T02:10:17.832Z,69.60
2018-12-15T02:12:44.843Z,70.10
2018-12-15T02:15:11.793Z,70.10
2018-12-15T02:17:38.746Z,70.00
2018-12-15T02:20:05.770Z,69.80
2018-12-15T02:22:32.704Z,69.90
2018-12-15T02:24:59.670Z,70.00
2018-12-15T02:27:26.620Z,70.30
2018-12-15T02:29:53.569Z,70.10
2018-12-15T02:32:21.067Z,69.80
2018-12-15T02:34:48.038Z,70.00
2018-12-15T02:37:14.984Z,71.00
2018-12-15T02:39:41.937Z,69.90
2018-12-15T02:42:08.897Z,69.90
2018-12-15T02:44:35.865Z,69.80
2018-12-15T02:47:02.800Z,69.40
2018-12-15T02:49:29.770Z,69.40
2018-12-15T02:51:56.711Z,70.10
2018-12-15T02:54:23.653Z,70.10
2018-12-15T02:56:50.664Z,70.10
2018-12-15T02:59:17.636Z,69.90
2018-12-15T03:01:44.581Z,69.80
2018-12-15T03:04:11.549Z,69.50
2018-12-15T03:06:38.504Z,70.40
2018-12-15T03:09:05.797Z,70.30
2018-12-15T03:11:32.798Z,70.30
2018-12-15T03:13:59.741Z,70.40
2018-12-15T03:16:26.704Z,70.30
2018-12-15T03:18:53.650Z,70.00
2018-12-15T03:21:20.660Z,70.00
2018-12-15T03:23:47.614Z,70.50
2018-12-15T03:26:14.609Z,70.30
2018-12-15T03:28:41.568Z,70.80
2018-12-15T03:31:08.522Z,71.10
2018-12-15T03:33:35.827Z,70.30
2018-12-15T03:36:02.785Z,70.30
2018-12-15T03:38:29.733Z,70.50
2018-12-15T03:40:56.697Z,70.20
2018-12-15T03:43:23.642Z,70.30
2018-12-15T03:45:50.618Z,70.60
2018-12-15T03:48:17.587Z,70.70
2018-12-15T03:50:44.541Z,71.30
2018-12-15T03:53:11.509Z,70.70
2018-12-15T03:55:38.478Z,70.30
2018-12-15T03:58:05.445Z,70.20
2018-12-15T04:00:32.394Z,70.00
2018-12-15T04:02:59.367Z,70.60
2018-12-15T04:05:26.337Z,69.80
2018-12-15T04:07:53.273Z,69.70
2018-12-15T04:10:20.262Z,70.40
2018-12-15T04:12:47.187Z,70.10
2018-12-15T04:15:14.140Z,70.20
2018-12-15T04:17:41.096Z,70.30
2018-12-15T04:20:08.038Z,70.40
2018-12-15T04:22:34.976Z,70.00
2018-12-15T04:25:01.976Z,70.60
2018-12-15T04:27:28.913Z,70.80
2018-12-15T04:29:55.849Z,70.60
2018-12-15T04:32:23.588Z,70.20
2018-12-15T04:34:50.171Z,70.00
2018-12-15T04:37:17.119Z,70.90
2018-12-15T04:39:44.081Z,71.20
2018-12-15T04:42:11.018Z,71.00
2018-12-15T04:44:37.948Z,70.10
2018-12-15T04:47:04.910Z,69.60
2018-12-15T04:49:31.849Z,68.70
2018-12-15T04:51:58.792Z,69.40
2018-12-15T04:54:25.744Z,69.20
2018-12-15T04:56:52.677Z,68.80
2018-12-15T04:59:19.615Z,69.20
2018-12-15T05:01:46.581Z,69.30
2018-12-15T05:04:13.513Z,69.10
2018-12-15T05:06:54.940Z,69.80
2018-12-15T05:09:21.951Z,69.60
2018-12-15T05:11:48.882Z,69.00
2018-12-15T05:14:15.908Z,68.90
2018-12-15T05:16:42.828Z,69.10
2018-12-15T05:19:09.760Z,69.10
2018-12-15T05:21:36.956Z,69.50
2018-12-15T05:24:03.906Z,70.00
2018-12-15T05:26:30.835Z,70.00
2018-12-15T05:28:57.804Z,70.10
2018-12-15T05:31:24.748Z,70.70
2018-12-15T05:33:51.694Z,70.40
2018-12-15T05:36:19.026Z,70.70
2018-12-15T05:38:45.978Z,70.60
2018-12-15T05:41:12.913Z,71.20
2018-12-15T05:43:39.877Z,71.40
2018-12-15T05:46:06.817Z,71.60
2018-12-15T05:48:33.788Z,71.60
2018-12-15T05:51:00.769Z,72.00
2018-12-15T05:53:27.708Z,72.10
2018-12-15T05:55:54.665Z,71.20
2018-12-15T05:58:21.735Z,71.00
2018-12-15T06:00:48.664Z,71.00
2018-12-15T06:03:15.603Z,72.40
2018-12-15T06:05:42.589Z,74.70
2018-12-15T06:08:09.525Z,71.90
2018-12-15T06:10:36.824Z,70.10
2018-12-15T06:13:03.779Z,70.20
2018-12-15T06:15:30.733Z,70.20
2018-12-15T06:17:57.671Z,70.60
2018-12-15T06:20:24.651Z,70.80
2018-12-15T06:22:51.613Z,71.10
2018-12-15T06:25:18.542Z,70.90
2018-12-15T06:27:45.499Z,71.30
2018-12-15T06:30:12.446Z,71.40
2018-12-15T06:32:39.391Z,71.40
2018-12-15T06:35:06.339Z,72.00
2018-12-15T06:37:33.772Z,72.10
2018-12-15T06:40:00.728Z,72.40
2018-12-15T06:42:27.704Z,72.10
2018-12-15T06:44:54.664Z,71.80
2018-12-15T06:47:21.604Z,72.20
2018-12-15T06:49:48.561Z,72.80
2018-12-15T06:52:15.497Z,72.20
2018-12-15T06:54:42.457Z,72.30
2018-12-15T06:57:09.431Z,73.10
2018-12-15T06:59:36.416Z,73.10
2018-12-15T07:02:03.456Z,72.10
2018-12-15T07:04:30.489Z,71.70
2018-12-15T07:06:57.525Z,71.90
2018-12-15T07:09:24.468Z,72.40
2018-12-15T07:11:51.497Z,73.10
2018-12-15T07:14:18.447Z,73.60
2018-12-15T07:16:45.404Z,75.20
2018-12-15T07:19:12.344Z,74.60
2018-12-15T07:21:39.310Z,74.90
2018-12-15T07:24:06.362Z,74.10
2018-12-15T07:26:33.352Z,73.90
2018-12-15T07:29:00.347Z,73.30
2018-12-15T07:31:27.290Z,73.40
2018-12-15T07:33:54.263Z,72.80
2018-12-15T07:36:21.220Z,73.30
2018-12-15T07:38:48.724Z,74.00
2018-12-15T07:41:15.733Z,72.90
2018-12-15T07:43:42.677Z,72.00
2018-12-15T07:46:09.625Z,71.90
2018-12-15T07:48:36.592Z,72.40
2018-12-15T07:51:03.622Z,72.90
2018-12-15T07:53:30.586Z,73.00
2018-12-15T07:55:57.592Z,72.40
2018-12-15T07:58:24.554Z,72.10
2018-12-15T08:00:51.492Z,72.50
2018-12-15T08:03:18.462Z,72.40
2018-12-15T08:05:45.420Z,72.60
2018-12-15T08:08:12.371Z,72.40
2018-12-15T08:10:45.024Z,71.80
2018-12-15T08:13:22.913Z,71.90
2018-12-15T08:15:49.772Z,72.30
2018-12-15T08:18:16.744Z,72.60
2018-12-15T08:20:43.721Z,72.20
2018-12-15T08:23:10.687Z,72.50
2018-12-15T08:25:37.696Z,72.00
2018-12-15T08:28:04.732Z,71.50
2018-12-15T08:30:31.721Z,72.20
2018-12-15T08:32:58.665Z,71.90
2018-12-15T08:35:25.610Z,72.20
2018-12-15T08:37:52.567Z,72.00
2018-12-15T08:40:19.879Z,72.10
2018-12-15T08:42:46.851Z,72.10
2018-12-15T08:45:14.492Z,72.30
2018-12-15T08:47:41.514Z,71.50
2018-12-15T08:50:08.383Z,71.70
2018-12-15T08:52:35.361Z,71.10
2018-12-15T08:55:02.537Z,71.50
2018-12-15T08:57:29.500Z,71.10
2018-12-15T08:59:56.460Z,71.50
2018-12-15T09:02:23.394Z,70.50
2018-12-15T09:04:50.341Z,70.00
2018-12-15T09:07:17.461Z,69.60
2018-12-15T09:09:44.381Z,69.50
2018-12-15T09:12:11.320Z,68.60
2018-12-15T09:14:38.301Z,68.40
2018-12-15T09:17:05.428Z,69.30
2018-12-15T09:19:32.363Z,68.50
2018-12-15T09:21:59.329Z,68.90
2018-12-15T09:24:26.297Z,68.90
2018-12-15T09:26:53.237Z,68.50
2018-12-15T09:29:20.231Z,68.30
2018-12-15T09:31:47.229Z,68.10
2018-12-15T09:34:14.189Z,68.00
2018-12-15T09:36:41.180Z,68.20
2018-12-15T09:39:08.123Z,68.10
2018-12-15T09:41:35.512Z,68.30
2018-12-15T09:44:02.485Z,67.80
2018-12-15T09:46:29.452Z,67.60
2018-12-15T09:48:56.447Z,67.70
2018-12-15T09:51:23.401Z,67.10
2018-12-15T09:53:50.352Z,67.00
2018-12-15T09:56:17.316Z,67.10
2018-12-15T09:58:44.309Z,67.40
2018-12-15T10:01:11.252Z,67.20
2018-12-15T10:03:38.223Z,66.80
2018-12-15T10:06:05.188Z,66.60
2018-12-15T10:08:32.144Z,67.20
2018-12-15T10:10:59.099Z,67.20
2018-12-15T10:13:26.071Z,66.80
2018-12-15T10:15:53.013Z,67.10
2018-12-15T10:18:19.990Z,67.70
2018-12-15T10:20:46.945Z,67.40
2018-12-15T10:23:13.944Z,67.90
2018-12-15T10:25:40.896Z,67.50
2018-12-15T10:28:07.987Z,67.70
2018-12-15T10:30:40.796Z,67.50
2018-12-15T10:33:07.805Z,67.60
2018-12-15T10:35:34.813Z,67.00
2018-12-15T10:38:07.809Z,67.50
2018-12-15T10:40:34.788Z,67.80
2018-12-15T10:43:01.956Z,67.40
2018-12-15T10:45:29.055Z,67.60
2018-12-15T10:47:56.022Z,67.50
2018-12-15T10:50:24.123Z,67.70
2018-12-15T10:52:51.092Z,67.70
2018-12-15T10:55:18.066Z,67.70
2018-12-15T10:57:45.066Z,67.60
2018-12-15T11:00:17.855Z,67.80
2018-12-15T11:02:44.850Z,67.10
2018-12-15T11:05:11.908Z,67.80
2018-12-15T11:07:38.849Z,67.90
2018-12-15T11:10:05.804Z,68.30
2018-12-15T11:12:32.793Z,68.20
2018-12-15T11:14:59.789Z,67.60
2018-12-15T11:17:26.793Z,67.80
2018-12-15T11:19:53.748Z,67.60
2018-12-15T11:22:20.713Z,67.80
2018-12-15T11:24:47.642Z,67.80
2018-12-15T11:27:14.608Z,68.10
2018-12-15T11:29:41.582Z,67.60
2018-12-15T11:32:08.537Z,67.70
2018-12-15T11:34:35.518Z,67.90
2018-12-15T11:37:02.505Z,68.30
2018-12-15T11:39:29.613Z,68.70
2018-12-15T11:41:56.704Z,68.90
2018-12-15T11:44:24.670Z,68.80
2018-12-15T11:46:51.621Z,68.50
2018-12-15T11:49:18.709Z,68.10
2018-12-15T11:51:45.667Z,67.70
2018-12-15T11:54:12.613Z,67.20
2018-12-15T11:56:39.573Z,67.20
2018-12-15T11:59:06.511Z,67.60
2018-12-15T12:01:33.480Z,67.80
2018-12-15T12:04:00.481Z,68.00
2018-12-15T12:06:27.421Z,68.00
2018-12-15T12:08:54.347Z,67.90
2018-12-15T12:11:21.397Z,68.20
2018-12-15T12:13:48.408Z,68.30
2018-12-15T12:16:15.385Z,67.80
2018-12-15T12:18:42.392Z,67.80
2018-12-15T12:21:09.346Z,67.70
2018-12-15T12:23:36.317Z,67.30
2018-12-15T12:26:03.290Z,67.30
2018-12-15T12:28:30.256Z,67.20
2018-12-15T12:30:57.244Z,67.20
2018-12-15T12:33:24.225Z,67.30
2018-12-15T12:35:51.187Z,67.40
2018-12-15T12:38:18.125Z,67.40
2018-12-15T12:40:45.092Z,67.20
2018-12-15T12:43:12.045Z,66.90
2018-12-15T12:45:39.598Z,66.90
2018-12-15T12:48:06.581Z,66.80
2018-12-15T12:50:33.570Z,67.10
2018-12-15T12:53:00.493Z,67.10
2018-12-15T12:55:27.454Z,67.20
2018-12-15T12:57:54.401Z,67.20
2018-12-15T13:00:21.376Z,67.60
2018-12-15T13:02:48.360Z,67.40
2018-12-15T13:05:15.325Z,67.70
2018-12-15T13:07:42.289Z,67.50
2018-12-15T13:10:09.264Z,67.90
2018-12-15T13:12:36.218Z,67.60
2018-12-15T13:15:03.394Z,66.90
2018-12-15T13:17:30.379Z,67.50
2018-12-15T13:20:03.438Z,67.80
2018-12-15T13:22:24.273Z,67.30
2018-12-15T13:24:51.249Z,67.00
2018-12-15T13:27:18.223Z,67.40
2018-12-15T13:29:45.272Z,68.00
2018-12-15T13:32:12.266Z,68.30
2018-12-15T13:34:39.225Z,68.10
2018-12-15T13:37:06.172Z,68.40
2018-12-15T13:39:33.220Z,68.60
2018-12-15T13:42:00.231Z,68.90
2018-12-15T13:44:27.196Z,69.00
2018-12-15T13:46:54.625Z,68.80
2018-12-15T13:49:21.579Z,68.30
2018-12-15T13:51:48.527Z,68.30
2018-12-15T13:54:15.509Z,68.60
2018-12-15T13:56:42.454Z,68.20
2018-12-15T13:59:09.431Z,68.40
2018-12-15T14:01:36.410Z,68.20
2018-12-15T14:04:03.372Z,68.60
2018-12-15T14:06:30.352Z,68.20
2018-12-15T14:08:57.376Z,68.10
2018-12-15T14:11:24.337Z,68.10
2018-12-15T14:13:51.303Z,68.20
2018-12-15T14:16:18.261Z,68.00
2018-12-15T14:18:45.228Z,68.10
2018-12-15T14:21:12.168Z,68.10
2018-12-15T14:23:39.116Z,68.50
2018-12-15T14:26:06.069Z,68.70
2018-12-15T14:28:33.053Z,68.70
2018-12-15T14:31:00.100Z,68.80
2018-12-15T14:33:27.055Z,69.30
2018-12-15T14:35:54.001Z,69.20
2018-12-15T14:38:21.041Z,69.60
2018-12-15T14:40:48.001Z,70.10
2018-12-15T14:43:14.980Z,69.90
2018-12-15T14:45:42.072Z,69.70
2018-12-15T14:48:09.558Z,69.90
2018-12-15T14:50:36.504Z,69.60
2018-12-15T14:53:03.494Z,69.70
2018-12-15T14:55:30.428Z,69.20
2018-12-15T14:57:57.381Z,69.00
2018-12-15T15:00:24.353Z,68.60
2018-12-15T15:02:51.393Z,68.70
2018-12-15T15:05:18.373Z,68.40
2018-12-15T15:07:45.355Z,68.10
2018-12-15T15:10:12.291Z,68.50
2018-12-15T15:12:39.236Z,68.10
2018-12-15T15:15:06.184Z,68.30
2018-12-15T15:17:33.174Z,68.70
2018-12-15T15:20:00.152Z,68.60
2018-12-15T15:22:27.111Z,68.80
2018-12-15T15:24:54.078Z,68.70
2018-12-15T15:27:21.039Z,68.80
2018-12-15T15:29:48.096Z,68.90
2018-12-15T15:32:15.105Z,68.80
2018-12-15T15:34:42.078Z,68.30
2018-12-15T15:37:09.116Z,68.20
2018-12-15T15:39:36.099Z,68.90
2018-12-15T15:42:03.040Z,68.50
2018-12-15T15:44:30.128Z,68.30
2018-12-15T15:46:57.089Z,68.10
2018-12-15T15:49:24.577Z,67.90
2018-12-15T15:51:51.568Z,68.40
2018-12-15T15:54:18.527Z,68.90
2018-12-15T15:56:45.551Z,69.10
2018-12-15T15:59:12.536Z,69.00
2018-12-15T16:01:39.456Z,68.90
2018-12-15T16:04:06.426Z,69.10
2018-12-15T16:06:33.408Z,68.30
2018-12-15T16:09:00.376Z,68.20
2018-12-15T16:11:30.433Z,68.40
2018-12-15T16:13:57.396Z,68.90
2018-12-15T16:16:30.581Z,69.30
2018-12-15T16:18:57.565Z,69.30
2018-12-15T16:21:24.512Z,69.20
2018-12-15T16:23:51.468Z,69.10
2018-12-15T16:26:18.503Z,68.80
2018-12-15T16:28:45.508Z,68.40
2018-12-15T16:31:12.458Z,68.70
2018-12-15T16:33:39.452Z,68.90
2018-12-15T16:36:06.447Z,69.00
2018-12-15T16:38:33.412Z,69.30
2018-12-15T16:41:00.400Z,69.20
2018-12-15T16:43:27.454Z,69.30
2018-12-15T16:45:54.502Z,69.60
2018-12-15T16:48:21.467Z,69.70
2018-12-15T16:50:50.033Z,69.40
2018-12-15T16:53:15.710Z,68.80
2018-12-15T16:55:42.963Z,68.70
2018-12-15T16:58:09.985Z,67.70
2018-12-15T17:00:36.936Z,67.60
2018-12-15T17:03:03.981Z,67.80
2018-12-15T17:05:30.925Z,68.40
2018-12-15T17:07:57.888Z,68.70
2018-12-15T17:10:24.877Z,67.90
2018-12-15T17:12:51.893Z,67.70
2018-12-15T17:15:18.853Z,68.30
2018-12-15T17:17:45.805Z,68.00
2018-12-15T17:20:12.767Z,68.10
2018-12-15T17:22:39.736Z,68.00
2018-12-15T17:25:07.552Z,67.40
2018-12-15T17:27:34.450Z,67.40
2018-12-15T17:30:01.376Z,67.20
2018-12-15T17:32:28.356Z,67.50
2018-12-15T17:34:55.304Z,67.60
2018-12-15T17:37:22.265Z,68.00
2018-12-15T17:39:49.227Z,68.20
2018-12-15T17:42:16.173Z,67.90
2018-12-15T17:44:43.116Z,67.60
2018-12-15T17:47:10.256Z,68.10
2018-12-15T17:49:37.201Z,68.40
2018-12-15T17:52:04.531Z,68.40
2018-12-15T17:54:31.636Z,67.70
2018-12-15T17:56:58.610Z,68.00
2018-12-15T17:59:25.573Z,67.40
2018-12-15T18:01:52.541Z,67.50
2018-12-15T18:04:19.495Z,67.20
2018-12-15T18:06:46.444Z,67.70
2018-12-15T18:09:13.551Z,68.00
2018-12-15T18:11:40.551Z,68.20
2018-12-15T18:14:07.488Z,67.80
2018-12-15T18:16:34.460Z,67.80
2018-12-15T18:19:01.416Z,68.00
2018-12-15T18:21:28.380Z,67.80
2018-12-15T18:23:55.378Z,67.80
2018-12-15T18:26:22.326Z,68.10
2018-12-15T18:28:49.293Z,68.00
2018-12-15T18:31:16.276Z,68.30
2018-12-15T18:33:43.214Z,68.00
2018-12-15T18:36:10.146Z,67.90
2018-12-15T18:38:37.129Z,68.10
2018-12-15T18:41:04.059Z,68.00
2018-12-15T18:43:31.010Z,68.20
2018-12-15T18:45:57.984Z,68.60
2018-12-15T18:48:24.955Z,67.90
2018-12-15T18:50:51.931Z,68.30
2018-12-15T18:53:19.813Z,68.20
2018-12-15T18:55:46.743Z,68.40
2018-12-15T18:58:13.681Z,69.00
2018-12-15T19:00:40.649Z,69.00
2018-12-15T19:03:07.595Z,69.30
2018-12-15T19:05:34.549Z,69.50
2018-12-15T19:08:01.548Z,70.00
2018-12-15T19:10:28.485Z,70.40
2018-12-15T19:12:55.447Z,70.70
2018-12-15T19:15:22.453Z,70.80
2018-12-15T19:17:49.439Z,70.20
2018-12-15T19:20:16.427Z,70.10
2018-12-15T19:22:43.507Z,70.30
2018-12-15T19:25:10.453Z,70.80
2018-12-15T19:27:37.405Z,71.00
2018-12-15T19:30:04.719Z,71.10
2018-12-15T19:32:31.657Z,71.00
2018-12-15T19:34:58.592Z,71.00
2018-12-15T19:37:25.589Z,71.00
2018-12-15T19:39:52.525Z,70.70
2018-12-15T19:42:19.541Z,70.70
2018-12-15T19:44:46.761Z,71.30
2018-12-15T19:47:13.731Z,71.50
2018-12-15T19:49:40.678Z,71.40
2018-12-15T19:52:07.644Z,71.60
2018-12-15T19:54:35.345Z,71.40
2018-12-15T19:57:02.298Z,71.80
2018-12-15T19:59:29.282Z,71.70
2018-12-15T20:01:56.208Z,71.60
2018-12-15T20:04:23.188Z,71.60
2018-12-15T20:06:50.159Z,71.70
2018-12-15T20:09:17.149Z,71.70
2018-12-15T20:11:44.206Z,72.10
2018-12-15T20:14:11.218Z,72.10
2018-12-15T20:16:38.177Z,72.80
2018-12-15T20:19:05.168Z,72.30
2018-12-15T20:21:35.928Z,72.40
2018-12-15T20:23:59.083Z,72.60
2018-12-15T20:26:26.055Z,72.70
2018-12-15T20:28:53.038Z,72.60
2018-12-15T20:31:20.019Z,72.60
2018-12-15T20:33:46.985Z,72.80
2018-12-15T20:36:13.973Z,72.70
2018-12-15T20:38:40.944Z,72.50
2018-12-15T20:41:07.916Z,73.80
2018-12-15T20:43:34.927Z,73.30
2018-12-15T20:46:01.893Z,74.80
2018-12-15T20:48:28.881Z,74.10
2018-12-15T20:50:55.857Z,73.80
2018-12-15T20:53:22.826Z,73.20
2018-12-15T20:55:50.124Z,73.30
2018-12-15T20:58:17.089Z,73.70
2018-12-15T21:00:44.038Z,74.00
2018-12-15T21:03:10.968Z,74.20
2018-12-15T21:05:37.950Z,74.40
2018-12-15T21:08:04.903Z,74.60
2018-12-15T21:10:31.859Z,74.80
2018-12-15T21:12:58.825Z,75.10
2018-12-15T21:15:28.628Z,75.10
2018-12-15T21:17:55.599Z,74.60
2018-12-15T21:20:22.584Z,74.70
2018-12-15T21:22:49.543Z,75.00
2018-12-15T21:25:16.485Z,74.70
2018-12-15T21:27:43.464Z,75.40
2018-12-15T21:30:10.461Z,74.70
2018-12-15T21:32:37.903Z,75.00
2018-12-15T21:35:04.856Z,75.00
2018-12-15T21:37:31.789Z,74.90
2018-12-15T21:39:58.772Z,75.20
2018-12-15T21:42:25.768Z,74.90
2018-12-15T21:44:52.722Z,75.10
2018-12-15T21:47:19.657Z,75.00
2018-12-15T21:49:46.652Z,75.40
2018-12-15T21:52:13.624Z,75.50
2018-12-15T21:54:40.577Z,75.40
2018-12-15T21:57:09.109Z,75.20
2018-12-15T21:59:36.064Z,75.50
2018-12-15T22:02:03.020Z,75.90
2018-12-15T22:04:29.980Z,76.20
2018-12-15T22:06:56.949Z,76.50
2018-12-15T22:09:23.884Z,76.70
2018-12-15T22:11:50.896Z,76.60
2018-12-15T22:14:17.844Z,76.70
2018-12-15T22:16:44.833Z,76.80
2018-12-15T22:19:11.873Z,76.60
2018-12-15T22:21:38.826Z,77.10
2018-12-15T22:24:06.033Z,77.30
2018-12-15T22:26:33.012Z,77.70
2018-12-15T22:28:59.962Z,77.80
2018-12-15T22:31:26.903Z,77.00
2018-12-15T22:33:53.880Z,76.80
2018-12-15T22:36:20.899Z,77.20
2018-12-15T22:38:47.845Z,77.10
2018-12-15T22:41:14.796Z,77.20
2018-12-15T22:43:41.741Z,76.60
2018-12-15T22:46:08.697Z,76.70
2018-12-15T22:48:35.850Z,77.40
2018-12-15T22:51:02.794Z,77.80
2018-12-15T22:53:29.895Z,77.50
2018-12-15T22:55:56.860Z,77.60
2018-12-15T22:58:24.737Z,76.90
2018-12-15T23:00:57.580Z,76.30
2018-12-15T23:03:24.493Z,76.20
2018-12-15T23:05:51.521Z,76.50
2018-12-15T23:08:18.494Z,76.40
2018-12-15T23:10:45.513Z,76.10
2018-12-15T23:13:13.285Z,76.20
2018-12-15T23:15:40.720Z,76.70
2018-12-15T23:18:07.670Z,77.20
2018-12-15T23:20:34.608Z,77.30
2018-12-15T23:23:01.634Z,78.00
2018-12-15T23:25:28.614Z,77.60
2018-12-15T23:27:55.563Z,77.40
2018-12-15T23:30:22.532Z,77.00
2018-12-15T23:32:49.477Z,77.50
2018-12-15T23:35:16.448Z,77.50
2018-12-15T23:37:43.560Z,77.50
2018-12-15T23:40:10.485Z,77.50
2018-12-15T23:42:37.423Z,77.90
2018-12-15T23:45:05.284Z,78.20
2018-12-15T23:47:32.227Z,77.90
2018-12-15T23:49:59.205Z,77.70
2018-12-15T23:52:26.172Z,78.20
2018-12-15T23:54:53.166Z,78.10
2018-12-15T23:57:20.136Z,78.30
2018-12-15T23:59:47.319Z,78.20
